• Join FlightAware (Why Join?)
  • Login
  • US Flag 
11:15AM EDT


 

Airport Tracker/Info


-or-


 

Live Flight TrackerFlight Track Log ✈ CTL61 ✈ 16-Apr-2013 ✈ KBLF - KCRW

Flight Track Log - Related Links

Times and Time Zones

All times are in EDT time to prevent confusion due to time zone crossing. See the CTL61 flight status page for this flight to view local times or setup timezone preferences in your user account.

Time Position Orientation Groundspeed Altitude Reporting Facility
EDT Latitude Longitude Course Direction KTS MPH feet Rate Location/Type
11:15PM 37.3836 -81.2661 345° North 131 151 6,100  Level Indianapolis Center
11:16PM 37.4250 -81.2783 347° North 152 175 6,100  Level Indianapolis Center
11:17PM 37.4719 -81.3061 335° Northwest 159 183 6,100  Level Indianapolis Center
11:18PM 37.5164 -81.3197 346° North 164 189 6,100  Level Indianapolis Center
11:19PM 37.5606 -81.3328 347° North 168 193 6,100  Level Indianapolis Center
11:20PM 37.6036 -81.3472 345° North 166 191 6,100  Level Indianapolis Center
11:21PM 37.6592 -81.3625 348° North 173 199 6,100  Level Indianapolis Center
11:22PM 37.7047 -81.3764 346° North 174 200 6,100  Level Indianapolis Center
11:23PM 37.7511 -81.3917 345° North 175 201 6,100  Level Indianapolis Center
11:24PM 37.7967 -81.4064 346° North 174 200 6,100  Level Indianapolis Center
11:25PM 37.8422 -81.4194 347° North 172 198 6,100 -60 Level Indianapolis Center
11:26PM 37.8883 -81.4350 345° North 171 197 6,000 -60 Descending Indianapolis Center
11:27PM 37.9328 -81.4489 346° North 165 190 6,000  Level Indianapolis Center
11:28PM 37.9856 -81.4644 347° North 161 185 6,100 -180 Climbing Indianapolis Center
11:29PM 38.0289 -81.4792 345° North 162 186 5,700 -480 Descending Indianapolis Center
11:30PM 38.0747 -81.4928 347° North 168 193 5,200 -540 Descending Indianapolis Center
11:31PM 38.1181 -81.5078 345° North 164 189 4,700 -600 Descending Indianapolis Center
11:32PM 38.1617 -81.5214 346° North 163 188 4,100 -300 Descending Indianapolis Center
11:33PM 38.2019 -81.5317 349° North 153 176 4,100 -120 Level Indianapolis Center
11:34PM 38.2397 -81.5422 348° North 142 163 3,900 -480 Descending Indianapolis Center
11:35PM 38.2822 -81.5444 358° North 148 170 3,200 -660 Descending Indianapolis Center
11:36PM 38.3214 -81.5658 337° Northwest 151 174 2,600 -540 Descending Indianapolis Center
11:37PM 38.3583 -81.5636 North 145 167 2,200 -540 Descending Indianapolis Center
11:38PM 38.3853 -81.5636 360° North 123 142 1,600 -480 Descending Indianapolis Center
11:39PM 38.3764 -81.6058 255° West 118 136 1,300 -300 Descending Indianapolis Center